Time;durP1;ratioP1;P1;durP2;ratioP2;P2;SDS_P1;SDS_P2;PMS_P1;PMS_P2;Temp;Humidity;BMP_temperature;BMP_pressure;BME280_temperature;BME280_humidity;BME280_pressure;Samples;Min_cycle;Max_cycle;Signal;HPM_P1;HPM_P2
2022/01/12 00:00:05;;;;;;;;;;;0.20;77.70;;;;;;5095758;28;20312;-66
2022/01/12 00:02:30;;;;;;;;;;;0.10;78.80;;;;;;5094508;28;19912;-67
2022/01/12 00:04:57;;;;;;;;;;;0.20;80.50;;;;;;5094513;28;19954;-66
2022/01/12 00:07:23;;;;;;;;;;;0.30;80.90;;;;;;5095708;28;19908;-66
2022/01/12 00:09:48;;;;;;;;;;;0.40;80.80;;;;;;5094231;28;20427;-66
2022/01/12 00:12:14;;;;;;;;;;;0.50;80.20;;;;;;5095591;28;20332;-66
2022/01/12 00:14:39;;;;;;;;;;;0.30;80.70;;;;;;5095574;28;19930;-67
2022/01/12 00:17:05;;;;;;;;;;;0.40;80.20;;;;;;5095605;28;19927;-67
2022/01/12 00:19:30;;;;;;;;;;;0.40;79.80;;;;;;5095365;28;20364;-67
2022/01/12 00:21:56;;;;;;;;;;;0.40;79.50;;;;;;5095373;28;19909;-67
2022/01/12 00:24:25;;;;;;;;;;;0.30;79.10;;;;;;5095359;28;19912;-67
2022/01/12 00:35:03;;;;;;;;;;;0.00;80.60;;;;;;5095270;28;19914;-67
2022/01/12 00:37:29;;;;;;;;;;;0.20;79.90;;;;;;5093772;28;19912;-67
2022/01/12 00:39:58;;;;;;;;;;;0.20;79.50;;;;;;5094733;28;19924;-67
2022/01/12 00:42:26;;;;;;;;;;;0.40;79.40;;;;;;5095063;28;19957;-66
2022/01/12 00:44:53;;;;;;;;;;;0.20;78.80;;;;;;5095001;28;20428;-66
2022/01/12 00:47:18;;;;;;;;;;;0.00;79.90;;;;;;5093665;28;19909;-67
2022/01/12 00:49:44;;;;;;;;;;;0.00;80.50;;;;;;5094909;28;20377;-67
2022/01/12 00:52:10;;;;;;;;;;;0.00;80.20;;;;;;5094801;28;19908;-67
2022/01/12 00:54:35;;;;;;;;;;;0.00;80.30;;;;;;5093484;28;20372;-67
2022/01/12 00:57:01;;;;;;;;;;;0.00;80.20;;;;;;5094751;28;19908;-67
2022/01/12 00:59:26;;;;;;;;;;;0.00;80.10;;;;;;5094674;28;19927;-67
2022/01/12 01:01:52;;;;;;;;;;;0.10;80.30;;;;;;5093323;28;19908;-67
2022/01/12 01:04:17;;;;;;;;;;;0.20;80.00;;;;;;5094571;28;19908;-67
2022/01/12 01:06:43;;;;;;;;;;;0.00;78.60;;;;;;5094559;28;20273;-67
2022/01/12 01:09:09;;;;;;;;;;;-3276.60;79.60;;;;;;5094376;28;20400;-67
2022/01/12 01:11:34;;;;;;;;;;;-3276.50;81.60;;;;;;5094416;28;19912;-67
2022/01/12 01:14:09;;;;;;;;;;;-3276.40;83.40;;;;;;5094465;28;19908;-67
2022/01/12 01:27:22;;;;;;;;;;;-3276.00;84.30;;;;;;5094054;28;19914;-67
2022/01/12 01:29:48;;;;;;;;;;;-3276.10;84.30;;;;;;5094148;28;19908;-67
2022/01/12 01:32:14;;;;;;;;;;;-3276.10;83.50;;;;;;5094060;28;20376;-67
2022/01/12 01:34:45;;;;;;;;;;;-3276.10;83.00;;;;;;5094051;28;19908;-67
2022/01/12 01:37:11;;;;;;;;;;;-3276.20;83.00;;;;;;5094005;28;19936;-67
2022/01/12 01:39:37;;;;;;;;;;;-3276.30;83.30;;;;;;5093663;28;19971;-67
2022/01/12 01:42:07;;;;;;;;;;;-3276.40;83.20;;;;;;5093943;28;19958;-67
2022/01/12 01:53:18;;;;;;;;;;;-3276.50;83.10;;;;;;5093861;28;19908;-67
2022/01/12 01:55:33;;;;;;;;;;;-3276.70;81.20;;;;;;5094015;28;19915;-67
2022/01/12 01:57:59;;;;;;;;;;;-3276.50;81.20;;;;;;5092271;28;19908;-67
2022/01/12 02:00:25;;;;;;;;;;;-3276.40;82.30;;;;;;5093528;28;19919;-67
2022/01/12 02:02:52;;;;;;;;;;;-3276.40;83.20;;;;;;5093581;28;19984;-67
2022/01/12 02:05:18;;;;;;;;;;;-3276.20;82.60;;;;;;5093522;28;19983;-67
2022/01/12 02:07:44;;;;;;;;;;;-3275.70;83.60;;;;;;5093450;28;19951;-66
2022/01/12 02:10:09;;;;;;;;;;;-3275.40;85.40;;;;;;5093391;28;19915;-67
2022/01/12 02:12:35;;;;;;;;;;;-3275.40;85.50;;;;;;5093391;28;19938;-67
2022/01/12 02:15:01;;;;;;;;;;;-3275.50;86.00;;;;;;5093413;28;19909;-67
2022/01/12 02:17:33;;;;;;;;;;;-3275.60;86.00;;;;;;5093329;28;19943;-67
2022/01/12 02:41:20;;;;;;;;;;;-3275.20;86.60;;;;;;5051331;28;20508;-67
2022/01/12 02:54:46;;;;;;;;;;;-3276.10;83.60;;;;;;5052961;28;20374;-67
2022/01/12 02:57:11;;;;;;;;;;;-3275.90;83.20;;;;;;5052621;28;19909;-67
2022/01/12 02:59:40;;;;;;;;;;;-3275.90;83.70;;;;;;5052551;28;19982;-67
2022/01/12 03:02:29;;;;;;;;;;;-3275.80;84.00;;;;;;5055791;28;19908;-67
2022/01/12 03:05:29;;;;;;;;;;;-3275.80;84.20;;;;;;5056617;28;19916;-67
2022/01/12 03:07:58;;;;;;;;;;;-3275.80;83.70;;;;;;5056556;28;19909;-67
2022/01/12 03:10:25;;;;;;;;;;;-3275.80;83.90;;;;;;5056384;28;19909;-67
2022/01/12 03:12:51;;;;;;;;;;;-3275.90;83.60;;;;;;5056432;28;19963;-67
2022/01/12 03:15:16;;;;;;;;;;;-3275.80;84.10;;;;;;5056408;28;19909;-67
2022/01/12 03:17:42;;;;;;;;;;;-3275.70;84.20;;;;;;5038452;28;19912;-67
2022/01/12 03:20:08;;;;;;;;;;;-3275.50;84.50;;;;;;5056315;28;19920;-67
2022/01/12 03:22:34;;;;;;;;;;;-3275.20;84.30;;;;;;5038477;28;19995;-67
2022/01/12 03:24:59;;;;;;;;;;;-3275.10;85.30;;;;;;5056285;28;20410;-67
2022/01/12 03:27:26;;;;;;;;;;;-3275.10;86.20;;;;;;5056137;28;20023;-67
2022/01/12 03:29:55;;;;;;;;;;;-3275.00;86.60;;;;;;5038296;28;19924;-67
2022/01/12 03:32:28;;;;;;;;;;;-3275.10;87.10;;;;;;5056116;28;19909;-67
2022/01/12 03:35:06;;;;;;;;;;;-3275.10;87.00;;;;;;5056185;28;19909;-67
2022/01/12 03:37:54;;;;;;;;;;;-3275.00;87.10;;;;;;5056048;28;19932;-67
2022/01/12 03:40:20;;;;;;;;;;;-3275.10;87.60;;;;;;5055880;28;19913;-67
2022/01/12 03:42:46;;;;;;;;;;;-3275.40;87.80;;;;;;5055762;28;20271;-67
2022/01/12 03:45:11;;;;;;;;;;;-3275.60;87.70;;;;;;5055871;28;20358;-67
2022/01/12 03:47:37;;;;;;;;;;;-3275.70;87.40;;;;;;5055745;28;19928;-67
2022/01/12 03:50:03;;;;;;;;;;;-3275.80;86.60;;;;;;5055801;28;19977;-67
2022/01/12 03:52:28;;;;;;;;;;;-3275.80;85.70;;;;;;5055708;28;19959;-67
2022/01/12 03:54:54;;;;;;;;;;;-3275.70;85.30;;;;;;5055657;28;19915;-67
2022/01/12 03:57:19;;;;;;;;;;;-3275.60;85.80;;;;;;5055613;28;20381;-68
2022/01/12 03:59:45;;;;;;;;;;;-3275.80;86.20;;;;;;5055521;28;19928;-67
2022/01/12 04:02:10;;;;;;;;;;;-3275.90;85.80;;;;;;5055531;28;19909;-67
2022/01/12 04:04:52;;;;;;;;;;;-3276.00;85.60;;;;;;5055462;28;19909;-67
2022/01/12 04:10:02;;;;;;;;;;;-3275.20;84.30;;;;;;5055371;28;19916;-67
2022/01/12 04:12:29;;;;;;;;;;;-3275.00;84.80;;;;;;5054954;28;19909;-68
2022/01/12 04:14:54;;;;;;;;;;;-3275.00;85.30;;;;;;5055350;28;20366;-68
2022/01/12 04:17:20;;;;;;;;;;;-3274.90;85.90;;;;;;5055344;28;19987;-68
2022/01/12 04:19:45;;;;;;;;;;;-3275.00;86.20;;;;;;5037295;28;20289;-68
2022/01/12 04:24:55;;;;;;;;;;;-3274.90;86.60;;;;;;5055251;28;19935;-68
2022/01/12 04:27:20;;;;;;;;;;;-3274.90;87.20;;;;;;5054887;28;19908;-68
2022/01/12 04:29:46;;;;;;;;;;;-3275.20;87.90;;;;;;5055035;28;20434;-67
2022/01/12 04:32:12;;;;;;;;;;;-3275.50;87.40;;;;;;5037087;28;19908;-67
2022/01/12 04:34:37;;;;;;;;;;;-3275.70;86.40;;;;;;5054931;28;19909;-68
2022/01/12 04:37:03;;;;;;;;;;;-3275.70;86.00;;;;;;5054980;28;19958;-67
2022/01/12 04:39:28;;;;;;;;;;;-3275.60;86.00;;;;;;5055099;28;20015;-67
2022/01/12 04:41:54;;;;;;;;;;;-3275.60;85.90;;;;;;5054639;28;19921;-67
2022/01/12 04:44:19;;;;;;;;;;;-3275.60;85.60;;;;;;5036905;28;19909;-67
2022/01/12 04:47:03;;;;;;;;;;;-3275.10;84.60;;;;;;5036881;28;19913;-67
2022/01/12 04:49:47;;;;;;;;;;;-3274.90;86.40;;;;;;5054625;28;19915;-67
2022/01/12 04:52:14;;;;;;;;;;;-3274.80;86.90;;;;;;5054664;28;19909;-68
2022/01/12 04:54:40;;;;;;;;;;;-3274.90;87.60;;;;;;5054576;28;19916;-68
2022/01/12 04:57:05;;;;;;;;;;;-3275.30;88.20;;;;;;5054543;28;19912;-68
2022/01/12 04:59:34;;;;;;;;;;;-3275.60;87.80;;;;;;5054486;28;20314;-68
2022/01/12 05:02:13;;;;;;;;;;;-3275.70;87.30;;;;;;5054433;28;20040;-68
2022/01/12 05:07:41;;;;;;;;;;;-3275.70;85.10;;;;;;5054651;28;19959;-67
2022/01/12 05:13:00;;;;;;;;;;;-3274.70;86.80;;;;;;5038028;28;19909;-67
2022/01/12 05:15:33;;;;;;;;;;;-3274.70;87.80;;;;;;5054141;28;19927;-67
2022/01/12 05:17:59;;;;;;;;;;;-3274.90;88.40;;;;;;5054083;28;19951;-67
2022/01/12 05:20:25;;;;;;;;;;;-3275.10;88.30;;;;;;5053990;28;19956;-67
2022/01/12 05:22:50;;;;;;;;;;;-3275.20;87.80;;;;;;5053598;28;20365;-67
2022/01/12 05:25:17;;;;;;;;;;;-3275.30;87.40;;;;;;5053624;28;19959;-67
2022/01/12 05:27:44;;;;;;;;;;;-3275.40;87.20;;;;;;5053838;28;19908;-67
2022/01/12 05:30:10;;;;;;;;;;;-3275.20;86.10;;;;;;5053919;28;19955;-67
2022/01/12 05:32:35;;;;;;;;;;;-3274.80;85.20;;;;;;5053805;28;19920;-68
2022/01/12 05:35:04;;;;;;;;;;;-3274.60;85.90;;;;;;5053830;28;20469;-67
2022/01/12 05:37:30;;;;;;;;;;;-3274.60;86.80;;;;;;5035883;28;19916;-67
2022/01/12 05:39:55;;;;;;;;;;;-3274.70;87.50;;;;;;5053547;28;19917;-67
2022/01/12 05:42:21;;;;;;;;;;;-3275.00;88.00;;;;;;5053244;28;19920;-67
2022/01/12 05:44:46;;;;;;;;;;;-3275.30;88.20;;;;;;5053605;28;19916;-67
2022/01/12 05:47:30;;;;;;;;;;;-3275.50;88.10;;;;;;5053560;28;19909;-68
2022/01/12 06:03:57;;;;;;;;;;;-3275.80;86.20;;;;;;5099454;27;19916;-66
2022/01/12 06:06:23;;;;;;;;;;;-3275.40;85.90;;;;;;5089924;28;19919;-66
2022/01/12 07:21:52;;;;;;;;;;;-3274.90;86.10;;;;;;5090204;27;19923;-68
2022/01/12 07:26:17;;;;;;;;;;;-3274.70;87.40;;;;;;5079205;27;19924;-66
2022/01/12 07:28:44;;;;;;;;;;;-3274.70;88.30;;;;;;5075576;28;19923;-67
2022/01/12 07:31:10;;;;;;;;;;;-3274.70;88.50;;;;;;5071158;28;19932;-67
2022/01/12 07:33:35;;;;;;;;;;;-3274.90;89.40;;;;;;5072078;28;19913;-66
2022/01/12 07:36:01;;;;;;;;;;;-3275.10;88.30;;;;;;5068770;28;19916;-67
2022/01/12 07:43:56;;;;;;;;;;;-3275.30;87.60;;;;;;5093823;27;2150002;-67
2022/01/12 07:46:22;;;;;;;;;;;-3275.60;86.10;;;;;;5146008;27;19955;-67
2022/01/12 07:48:48;;;;;;;;;;;-3275.60;85.50;;;;;;5150095;27;19911;-67
2022/01/12 07:51:14;;;;;;;;;;;-3275.70;85.20;;;;;;5150282;27;20280;-67
2022/01/12 07:53:39;;;;;;;;;;;-3275.80;84.90;;;;;;5147014;27;20281;-68
2022/01/12 07:56:06;;;;;;;;;;;-3275.80;84.90;;;;;;5132684;27;19911;-67
2022/01/12 07:58:32;;;;;;;;;;;-3275.80;84.80;;;;;;5134634;27;19912;-67
2022/01/12 08:00:58;;;;;;;;;;;-3275.80;85.00;;;;;;5151510;27;20305;-67
2022/01/12 08:06:42;;;;;;;;;;;-3275.80;86.00;;;;;;5097839;27;19917;-69
2022/01/12 08:09:08;;;;;;;;;;;-3275.80;87.10;;;;;;5082094;28;19913;-66
2022/01/12 08:14:55;;;;;;;;;;;-3275.80;87.30;;;;;;5095992;28;20366;-69
2022/01/12 08:17:20;;;;;;;;;;;-3276.10;86.90;;;;;;5089232;28;19919;-69
2022/01/12 08:19:46;;;;;;;;;;;-3276.30;85.20;;;;;;5089228;28;19916;-66
2022/01/12 08:22:11;;;;;;;;;;;-3276.40;84.50;;;;;;5088601;28;19927;-66
2022/01/12 08:24:37;;;;;;;;;;;-3276.50;83.00;;;;;;5087069;28;19912;-66
2022/01/12 08:30:59;;;;;;;;;;;-3276.50;83.10;;;;;;5087801;27;2024734;-68
2022/01/12 08:39:37;;;;;;;;;;;0.00;83.50;;;;;;5130671;27;19923;-68
2022/01/12 08:42:02;;;;;;;;;;;0.10;84.20;;;;;;5130165;28;19911;-69
2022/01/12 08:44:28;;;;;;;;;;;0.20;84.20;;;;;;5116029;28;19920;-68
2022/01/12 08:47:09;;;;;;;;;;;0.30;83.70;;;;;;5129219;27;20154;-67
2022/01/12 08:49:35;;;;;;;;;;;0.40;83.50;;;;;;5130182;28;20462;-67
2022/01/12 08:54:18;;;;;;;;;;;0.60;83.70;;;;;;5099349;27;20284;-68
2022/01/12 08:56:44;;;;;;;;;;;0.90;82.00;;;;;;5104663;28;20318;-67
2022/01/12 08:59:10;;;;;;;;;;;1.00;81.30;;;;;;5096393;28;20366;-67
2022/01/12 09:01:36;;;;;;;;;;;1.20;80.70;;;;;;5103472;28;19950;-67
2022/01/12 09:11:27;;;;;;;;;;;1.20;80.40;;;;;;5097594;27;20374;-69
2022/01/12 09:13:53;;;;;;;;;;;1.40;80.60;;;;;;5084479;28;19921;-68
2022/01/12 09:16:18;;;;;;;;;;;1.40;80.30;;;;;;5109000;28;19916;-68
2022/01/12 09:18:44;;;;;;;;;;;1.40;80.00;;;;;;5072930;28;19920;-69
2022/01/12 09:21:10;;;;;;;;;;;1.50;79.50;;;;;;5075939;28;20267;-69
2022/01/12 09:23:35;;;;;;;;;;;1.50;78.90;;;;;;5073562;28;19920;-69
2022/01/12 09:26:02;;;;;;;;;;;1.70;79.20;;;;;;5081022;28;19913;-69
2022/01/12 09:28:28;;;;;;;;;;;1.70;79.50;;;;;;5082030;28;20290;-69
2022/01/12 09:36:43;;;;;;;;;;;1.90;78.80;;;;;;5097515;27;19916;-69
2022/01/12 09:39:09;;;;;;;;;;;2.40;79.40;;;;;;5088182;28;19917;-70
2022/01/12 09:41:35;;;;;;;;;;;2.70;78.50;;;;;;5082187;28;19916;-69
2022/01/12 09:44:01;;;;;;;;;;;2.80;77.30;;;;;;5076678;28;20320;-69
2022/01/12 09:46:27;;;;;;;;;;;3.00;77.00;;;;;;5079680;28;19919;-66
2022/01/12 15:46:47;;;;;;;;;;;14.10;22.10;;;;;;5110331;27;19916;-67
2022/01/12 15:49:13;;;;;;;;;;;7.40;44.90;;;;;;5107338;28;19919;-67
2022/01/12 15:51:39;;;;;;;;;;;7.30;45.40;;;;;;5081799;28;19913;-66
2022/01/12 15:54:04;;;;;;;;;;;7.10;45.90;;;;;;5081898;28;19956;-65
2022/01/12 15:56:30;;;;;;;;;;;7.00;46.40;;;;;;5074883;28;20631;-66
2022/01/12 15:58:56;;;;;;;;;;;6.90;47.00;;;;;;5076462;28;20370;-66
2022/01/12 16:01:21;;;;;;;;;;;6.80;47.80;;;;;;5082429;28;19919;-67
2022/01/12 16:03:47;;;;;;;;;;;6.70;48.50;;;;;;5072033;28;20278;-66
2022/01/12 16:06:12;;;;;;;;;;;6.60;48.90;;;;;;5084368;28;19961;-67
2022/01/12 16:14:27;;;;;;;;;;;6.40;49.50;;;;;;5066028;28;20333;-68
2022/01/12 16:16:52;;;;;;;;;;;5.90;52.50;;;;;;5050642;28;19913;-68
2022/01/12 16:19:18;;;;;;;;;;;5.80;53.20;;;;;;5049773;28;20393;-68
2022/01/12 16:21:44;;;;;;;;;;;5.60;54.20;;;;;;5051999;28;19948;-68
2022/01/12 16:24:10;;;;;;;;;;;5.40;54.70;;;;;;5048917;28;20012;-66
2022/01/12 16:26:35;;;;;;;;;;;5.30;56.00;;;;;;5030569;28;20322;-66
2022/01/12 16:29:04;;;;;;;;;;;5.20;56.00;;;;;;5040154;28;19959;-67
2022/01/12 16:31:30;;;;;;;;;;;5.10;56.30;;;;;;5036299;28;19951;-67
2022/01/12 16:33:57;;;;;;;;;;;5.00;57.10;;;;;;5028101;28;20371;-68
2022/01/12 16:36:23;;;;;;;;;;;5.00;57.40;;;;;;5033720;28;19922;-67
2022/01/12 16:38:50;;;;;;;;;;;4.90;58.60;;;;;;5030238;28;19969;-67
2022/01/12 16:41:16;;;;;;;;;;;4.90;58.70;;;;;;5044972;28;20375;-68
2022/01/12 16:43:41;;;;;;;;;;;4.80;58.60;;;;;;5048573;28;19958;-68
2022/01/12 16:46:11;;;;;;;;;;;4.70;59.50;;;;;;5036777;28;20001;-67
2022/01/12 16:50:12;;;;;;;;;;;4.60;60.40;;;;;;5093901;27;19960;-66
2022/01/12 16:52:38;;;;;;;;;;;4.40;62.00;;;;;;5088826;28;20105;-66
2022/01/12 16:55:05;;;;;;;;;;;4.30;63.10;;;;;;5089022;28;19913;-66
2022/01/12 16:57:30;;;;;;;;;;;4.20;63.50;;;;;;5089469;28;20430;-66
2022/01/12 16:59:56;;;;;;;;;;;4.20;64.40;;;;;;5089899;28;19958;-66
2022/01/12 17:05:34;;;;;;;;;;;4.00;64.80;;;;;;5147517;27;19921;-66
2022/01/12 17:07:59;;;;;;;;;;;3.70;67.00;;;;;;5129965;28;19911;-67
2022/01/12 17:10:25;;;;;;;;;;;3.60;68.20;;;;;;5129760;28;19922;-67
2022/01/12 17:12:50;;;;;;;;;;;3.50;69.50;;;;;;5129602;28;19943;-67
2022/01/12 17:15:33;;;;;;;;;;;3.50;71.40;;;;;;5128984;28;19969;-66
2022/01/12 17:18:12;;;;;;;;;;;3.50;71.90;;;;;;5123372;28;20001;-67
2022/01/12 17:25:58;;;;;;;;;;;3.50;72.50;;;;;;5103744;27;19966;-66
2022/01/12 17:28:23;;;;;;;;;;;3.70;70.80;;;;;;5089288;28;19912;-66
2022/01/12 17:30:50;;;;;;;;;;;3.80;70.60;;;;;;5090151;28;19908;-66
2022/01/12 17:33:16;;;;;;;;;;;3.80;70.50;;;;;;5089889;28;19959;-66
2022/01/12 17:35:43;;;;;;;;;;;3.80;70.00;;;;;;5089772;28;19912;-66
2022/01/12 17:38:09;;;;;;;;;;;3.70;69.50;;;;;;5090128;28;19995;-66
2022/01/12 17:40:42;;;;;;;;;;;3.80;69.30;;;;;;5090249;28;19939;-67
2022/01/12 17:43:12;;;;;;;;;;;3.80;69.30;;;;;;5089523;28;19940;-67
2022/01/12 17:45:38;;;;;;;;;;;3.80;69.70;;;;;;5089297;28;19974;-67
2022/01/12 17:48:06;;;;;;;;;;;3.70;69.90;;;;;;5089963;28;20362;-67
2022/01/12 17:50:32;;;;;;;;;;;3.70;70.00;;;;;;5089861;28;19912;-67
2022/01/12 17:52:57;;;;;;;;;;;3.70;69.50;;;;;;5089812;28;19908;-67
2022/01/12 17:55:26;;;;;;;;;;;3.70;69.40;;;;;;5089496;28;20336;-67
2022/01/12 17:57:52;;;;;;;;;;;3.80;69.40;;;;;;5088677;28;19957;-67
2022/01/12 18:00:23;;;;;;;;;;;4.00;69.00;;;;;;5089074;28;19920;-67
2022/01/12 18:02:48;;;;;;;;;;;4.00;68.00;;;;;;5088987;28;19913;-66
2022/01/12 18:05:16;;;;;;;;;;;3.70;67.90;;;;;;5089182;28;19912;-66
2022/01/12 18:07:42;;;;;;;;;;;3.00;68.80;;;;;;5089435;28;19966;-66
2022/01/12 18:18:03;;;;;;;;;;;2.10;74.50;;;;;;5110821;27;20386;-68
2022/01/12 18:20:29;;;;;;;;;;;2.00;74.60;;;;;;5110731;28;20078;-69
2022/01/12 18:22:54;;;;;;;;;;;2.00;74.60;;;;;;5123526;27;20378;-68
2022/01/12 18:25:20;;;;;;;;;;;2.10;74.90;;;;;;5090359;28;20015;-69
2022/01/12 18:27:45;;;;;;;;;;;2.10;74.90;;;;;;5090232;28;20369;-69
2022/01/12 18:30:11;;;;;;;;;;;2.10;76.10;;;;;;5090336;28;19915;-68
2022/01/12 18:32:37;;;;;;;;;;;2.10;76.20;;;;;;5107647;28;19931;-68
2022/01/12 18:35:02;;;;;;;;;;;2.10;75.80;;;;;;5110583;28;20393;-68
2022/01/12 18:37:28;;;;;;;;;;;2.20;75.70;;;;;;5110673;28;20285;-69
2022/01/12 18:39:55;;;;;;;;;;;2.20;75.80;;;;;;5110783;28;19912;-68
2022/01/12 18:42:21;;;;;;;;;;;2.10;76.30;;;;;;5110330;28;19908;-69
2022/01/12 18:44:47;;;;;;;;;;;2.00;76.90;;;;;;5110127;28;20173;-68
2022/01/12 18:47:13;;;;;;;;;;;1.80;77.70;;;;;;5110434;28;20094;-69
2022/01/12 18:49:39;;;;;;;;;;;1.70;79.20;;;;;;5110320;28;19908;-68
2022/01/12 18:52:04;;;;;;;;;;;1.60;79.30;;;;;;5109993;28;19915;-68
2022/01/12 18:54:30;;;;;;;;;;;1.60;80.70;;;;;;5110142;28;20323;-69
2022/01/12 18:56:56;;;;;;;;;;;1.60;80.80;;;;;;5108760;28;19912;-69
2022/01/12 18:59:22;;;;;;;;;;;1.60;79.90;;;;;;5110108;28;19908;-69
2022/01/12 19:01:47;;;;;;;;;;;1.40;79.30;;;;;;5110066;28;20277;-68
2022/01/12 19:04:13;;;;;;;;;;;1.30;78.70;;;;;;5110101;28;19965;-68
2022/01/12 19:06:39;;;;;;;;;;;1.20;79.00;;;;;;5110029;28;19908;-68
2022/01/12 19:09:05;;;;;;;;;;;1.10;80.10;;;;;;5109785;28;19916;-69
2022/01/12 19:11:31;;;;;;;;;;;1.10;81.10;;;;;;5110154;28;19908;-68
2022/01/12 19:14:19;;;;;;;;;;;1.00;82.10;;;;;;5109932;28;19943;-68
2022/01/12 19:16:44;;;;;;;;;;;1.00;82.50;;;;;;5109326;28;19981;-66
2022/01/12 19:19:09;;;;;;;;;;;1.20;82.20;;;;;;5109733;28;19931;-67
2022/01/12 19:21:35;;;;;;;;;;;1.40;80.60;;;;;;5109650;28;20285;-66
2022/01/12 19:24:02;;;;;;;;;;;1.60;79.60;;;;;;5109600;28;19915;-66
2022/01/12 19:26:28;;;;;;;;;;;1.50;78.60;;;;;;5109463;28;19912;-67
2022/01/12 19:28:54;;;;;;;;;;;0.90;78.40;;;;;;5098610;28;19913;-68
2022/01/12 19:31:20;;;;;;;;;;;0.50;81.00;;;;;;5095886;28;19908;-68
2022/01/12 19:33:45;;;;;;;;;;;0.40;82.10;;;;;;5094475;28;19995;-69
2022/01/12 19:36:11;;;;;;;;;;;0.30;82.00;;;;;;5096080;28;20288;-69
2022/01/12 19:38:36;;;;;;;;;;;0.40;82.30;;;;;;5095769;28;19954;-69
2022/01/12 19:41:02;;;;;;;;;;;0.40;82.60;;;;;;5095764;28;19908;-68
2022/01/12 19:43:27;;;;;;;;;;;0.50;82.20;;;;;;5095662;28;19914;-69
2022/01/12 19:45:53;;;;;;;;;;;0.60;82.30;;;;;;5095645;28;19951;-69
2022/01/12 19:48:18;;;;;;;;;;;0.60;82.20;;;;;;5095578;28;20360;-69
2022/01/12 19:50:44;;;;;;;;;;;0.60;82.20;;;;;;5095546;28;20258;-69
2022/01/12 19:53:28;;;;;;;;;;;0.50;83.10;;;;;;5095464;28;20332;-69
2022/01/12 19:55:58;;;;;;;;;;;0.60;83.90;;;;;;5095355;28;19914;-69
2022/01/12 19:58:26;;;;;;;;;;;0.70;84.00;;;;;;5095379;28;19974;-68
2022/01/12 20:00:59;;;;;;;;;;;0.80;83.90;;;;;;5095288;28;19908;-68
2022/01/12 20:03:32;;;;;;;;;;;0.90;83.50;;;;;;5095378;28;19974;-68
2022/01/12 20:05:57;;;;;;;;;;;0.80;82.20;;;;;;5095194;28;19912;-68
2022/01/12 20:08:28;;;;;;;;;;;0.70;81.90;;;;;;5095410;28;20088;-68
2022/01/12 20:10:54;;;;;;;;;;;0.50;82.40;;;;;;5095090;28;19965;-68
2022/01/12 20:13:19;;;;;;;;;;;0.30;81.80;;;;;;5095118;28;19958;-68
2022/01/12 20:15:45;;;;;;;;;;;0.10;82.40;;;;;;5094836;28;19916;-68
2022/01/12 20:23:49;;;;;;;;;;;-3276.50;85.60;;;;;;5095266;28;20426;-69
2022/01/12 20:26:15;;;;;;;;;;;-3276.60;86.30;;;;;;5094892;28;19908;-69
2022/01/12 20:28:40;;;;;;;;;;;0.00;86.70;;;;;;5094731;28;20049;-68
2022/01/12 20:31:06;;;;;;;;;;;0.20;87.20;;;;;;5094782;28;19908;-69
2022/01/12 20:33:31;;;;;;;;;;;0.30;87.30;;;;;;5093428;28;19908;-69
2022/01/12 20:35:57;;;;;;;;;;;0.30;86.90;;;;;;5094575;28;19916;-68
2022/01/12 20:38:22;;;;;;;;;;;0.20;86.30;;;;;;5094679;28;20312;-69
2022/01/12 20:40:48;;;;;;;;;;;0.20;86.60;;;;;;5093723;28;19908;-69
2022/01/12 20:43:14;;;;;;;;;;;0.30;86.50;;;;;;5094501;28;20400;-68
2022/01/12 20:45:41;;;;;;;;;;;0.40;86.40;;;;;;5094464;28;19908;-68
2022/01/12 20:48:06;;;;;;;;;;;0.50;85.90;;;;;;5094385;28;19931;-68
2022/01/12 20:50:32;;;;;;;;;;;0.50;85.60;;;;;;5094361;28;20358;-68
2022/01/12 20:52:57;;;;;;;;;;;0.60;85.70;;;;;;5094331;28;19908;-68
2022/01/12 20:55:23;;;;;;;;;;;0.30;84.80;;;;;;5094288;28;19919;-68
2022/01/12 20:57:49;;;;;;;;;;;0.10;85.00;;;;;;5094126;28;19919;-68
2022/01/12 21:00:14;;;;;;;;;;;0.00;85.60;;;;;;5094536;28;19908;-68
2022/01/12 21:02:42;;;;;;;;;;;-3276.70;85.90;;;;;;5094172;28;19915;-68
2022/01/12 21:05:08;;;;;;;;;;;-3276.70;86.00;;;;;;5094073;28;19915;-68
2022/01/12 21:07:34;;;;;;;;;;;0.00;85.90;;;;;;5094359;28;19919;-68
2022/01/12 21:10:00;;;;;;;;;;;0.00;85.60;;;;;;5093943;28;19908;-68
2022/01/12 21:12:25;;;;;;;;;;;0.00;85.50;;;;;;5093962;28;19908;-68
2022/01/12 21:14:52;;;;;;;;;;;0.00;85.30;;;;;;5093974;28;19915;-68
2022/01/12 21:17:18;;;;;;;;;;;-3276.70;85.60;;;;;;5093598;28;19927;-68
2022/01/12 21:19:43;;;;;;;;;;;0.00;85.70;;;;;;5092507;28;19938;-69
2022/01/12 21:28:02;;;;;;;;;;;0.00;85.10;;;;;;5110880;27;19912;-68
2022/01/12 21:30:27;;;;;;;;;;;0.00;84.90;;;;;;5110922;28;19912;-67
2022/01/12 21:32:53;;;;;;;;;;;0.00;86.20;;;;;;5110857;28;20388;-68
2022/01/12 21:35:24;;;;;;;;;;;0.00;86.80;;;;;;5110819;28;19915;-68
2022/01/12 21:37:54;;;;;;;;;;;0.00;86.20;;;;;;5110718;28;19908;-68
2022/01/12 21:40:34;;;;;;;;;;;-3276.70;86.20;;;;;;5110618;28;19939;-68
2022/01/12 21:43:00;;;;;;;;;;;-3276.60;86.00;;;;;;5110625;28;19912;-68
2022/01/12 21:45:26;;;;;;;;;;;-3276.60;85.90;;;;;;5110513;28;19908;-68
2022/01/12 21:47:52;;;;;;;;;;;-3276.50;85.80;;;;;;5110477;28;19970;-68
2022/01/12 21:50:17;;;;;;;;;;;-3276.40;85.60;;;;;;5110843;28;20479;-68
2022/01/12 21:52:43;;;;;;;;;;;-3276.50;85.90;;;;;;5110414;28;20366;-68
2022/01/12 21:55:09;;;;;;;;;;;-3276.60;85.80;;;;;;5110403;28;19908;-68
2022/01/12 21:57:34;;;;;;;;;;;0.00;86.00;;;;;;5110355;28;19915;-68
2022/01/12 22:00:00;;;;;;;;;;;0.00;85.70;;;;;;5110321;28;20435;-69
2022/01/12 22:02:26;;;;;;;;;;;0.00;85.10;;;;;;5108875;28;20285;-68
2022/01/12 22:04:53;;;;;;;;;;;0.00;84.80;;;;;;5110230;28;19908;-68
2022/01/12 22:07:19;;;;;;;;;;;0.00;84.90;;;;;;5110131;28;20128;-68
2022/01/12 22:09:44;;;;;;;;;;;0.00;85.20;;;;;;5110301;28;20437;-68
2022/01/12 22:12:10;;;;;;;;;;;-3276.60;84.60;;;;;;5110120;28;19915;-68
2022/01/12 22:14:36;;;;;;;;;;;-3276.40;85.60;;;;;;5109978;28;19908;-68
2022/01/12 22:17:02;;;;;;;;;;;-3276.30;87.00;;;;;;5110004;28;19911;-68
2022/01/12 22:19:33;;;;;;;;;;;-3276.30;87.40;;;;;;5109911;28;19995;-68
2022/01/12 22:21:59;;;;;;;;;;;-3276.20;87.50;;;;;;5109920;28;19933;-68
2022/01/12 22:24:24;;;;;;;;;;;-3276.20;88.00;;;;;;5108512;28;19915;-68
2022/01/12 22:26:50;;;;;;;;;;;-3276.20;87.80;;;;;;5109481;28;20274;-68
2022/01/12 22:29:15;;;;;;;;;;;-3276.30;87.70;;;;;;5109699;28;20427;-69
2022/01/12 22:31:42;;;;;;;;;;;-3276.30;87.40;;;;;;5109744;28;20003;-68
2022/01/12 22:34:07;;;;;;;;;;;-3276.30;87.30;;;;;;5109660;28;20361;-68
2022/01/12 22:36:33;;;;;;;;;;;-3276.50;87.60;;;;;;5108364;28;19915;-68
2022/01/12 22:38:58;;;;;;;;;;;-3276.60;87.60;;;;;;5098224;28;20381;-68
2022/01/12 22:41:24;;;;;;;;;;;0.00;87.50;;;;;;5095950;28;20281;-68
2022/01/12 22:43:51;;;;;;;;;;;0.00;87.30;;;;;;5095905;28;20389;-68
2022/01/12 22:46:17;;;;;;;;;;;0.00;87.00;;;;;;5095804;28;19912;-68
2022/01/12 22:48:43;;;;;;;;;;;0.00;87.60;;;;;;5095807;28;19919;-68
2022/01/12 22:51:08;;;;;;;;;;;-3276.70;88.30;;;;;;5095813;28;20014;-67
2022/01/12 22:53:34;;;;;;;;;;;-3276.70;88.30;;;;;;5095739;28;19909;-68
2022/01/12 22:56:00;;;;;;;;;;;-3276.20;86.10;;;;;;5095712;28;19912;-68
2022/01/12 22:58:47;;;;;;;;;;;-3276.00;87.30;;;;;;5095685;28;19937;-67
2022/01/12 23:01:14;;;;;;;;;;;-3275.90;87.70;;;;;;5095329;28;19908;-68
2022/01/12 23:03:41;;;;;;;;;;;-3276.00;88.50;;;;;;5094231;28;19908;-68
2022/01/12 23:06:07;;;;;;;;;;;-3276.10;88.90;;;;;;5094104;28;20296;-68
2022/01/12 23:08:33;;;;;;;;;;;-3276.20;89.00;;;;;;5094185;28;20412;-68
2022/01/12 23:10:59;;;;;;;;;;;-3276.20;88.80;;;;;;5095425;28;19947;-69
2022/01/12 23:13:24;;;;;;;;;;;-3276.30;88.50;;;;;;5095373;28;20331;-68
2022/01/12 23:15:50;;;;;;;;;;;-3276.40;88.00;;;;;;5095326;28;19915;-68
2022/01/12 23:18:16;;;;;;;;;;;-3276.50;88.20;;;;;;5093957;28;19908;-68
2022/01/12 23:20:42;;;;;;;;;;;-3276.60;88.20;;;;;;5095232;28;19915;-68
2022/01/12 23:23:07;;;;;;;;;;;-3276.70;87.90;;;;;;5095138;28;19909;-68
2022/01/12 23:25:33;;;;;;;;;;;-3276.60;87.30;;;;;;5095099;28;19908;-68
2022/01/12 23:27:59;;;;;;;;;;;-3276.40;86.00;;;;;;5093604;28;20019;-68
2022/01/12 23:30:26;;;;;;;;;;;-3275.80;85.10;;;;;;5095047;28;20324;-68
2022/01/12 23:32:54;;;;;;;;;;;-3275.70;86.60;;;;;;5093639;28;19970;-68
2022/01/12 23:48:43;;;;;;;;;;;-3276.10;89.20;;;;;;5094669;28;19915;-67
2022/01/12 23:56:53;;;;;;;;;;;-3275.80;88.20;;;;;;5094414;28;20284;-68
2022/01/12 23:59:22;;;;;;;;;;;-3275.70;87.90;;;;;;5094439;28;20400;-68
